sensor_id;sensor_type;location;lat;lon;timestamp;P1;durP1;ratioP1;P2;durP2;ratioP2
37693;SDS011;23531;50.122;8.644;2022-10-24T00:01:16;18.70;;;9.98;;
37693;SDS011;23531;50.122;8.644;2022-10-24T00:03:20;16.25;;;8.98;;
37693;SDS011;23531;50.122;8.644;2022-10-24T00:05:21;17.38;;;9.55;;
37693;SDS011;23531;50.122;8.644;2022-10-24T00:07:23;22.95;;;10.25;;
37693;SDS011;23531;50.122;8.644;2022-10-24T00:09:24;17.20;;;9.50;;
37693;SDS011;23531;50.122;8.644;2022-10-24T00:11:26;15.90;;;8.35;;
37693;SDS011;23531;50.122;8.644;2022-10-24T00:13:29;18.98;;;9.00;;
37693;SDS011;23531;50.122;8.644;2022-10-24T00:15:31;16.67;;;9.48;;
37693;SDS011;23531;50.122;8.644;2022-10-24T00:17:33;17.63;;;8.77;;
37693;SDS011;23531;50.122;8.644;2022-10-24T00:19:35;15.43;;;8.57;;
37693;SDS011;23531;50.122;8.644;2022-10-24T00:21:36;14.45;;;9.35;;
37693;SDS011;23531;50.122;8.644;2022-10-24T00:23:38;17.00;;;9.20;;
37693;SDS011;23531;50.122;8.644;2022-10-24T00:25:40;15.55;;;8.30;;
37693;SDS011;23531;50.122;8.644;2022-10-24T00:27:41;16.05;;;8.60;;
37693;SDS011;23531;50.122;8.644;2022-10-24T00:29:43;15.40;;;8.45;;
37693;SDS011;23531;50.122;8.644;2022-10-24T00:31:46;14.90;;;8.45;;
37693;SDS011;23531;50.122;8.644;2022-10-24T00:33:48;15.07;;;8.35;;
37693;SDS011;23531;50.122;8.644;2022-10-24T00:35:49;13.52;;;8.45;;
37693;SDS011;23531;50.122;8.644;2022-10-24T00:37:51;17.85;;;8.98;;
37693;SDS011;23531;50.122;8.644;2022-10-24T00:39:52;19.77;;;8.82;;
37693;SDS011;23531;50.122;8.644;2022-10-24T00:41:54;14.85;;;8.75;;
37693;SDS011;23531;50.122;8.644;2022-10-24T00:46:27;16.27;;;9.05;;
37693;SDS011;23531;50.122;8.644;2022-10-24T00:48:31;15.85;;;8.68;;
37693;SDS011;23531;50.122;8.644;2022-10-24T00:50:35;17.23;;;8.38;;
37693;SDS011;23531;50.122;8.644;2022-10-24T00:52:37;13.65;;;9.10;;
37693;SDS011;23531;50.122;8.644;2022-10-24T00:54:43;16.73;;;8.80;;
37693;SDS011;23531;50.122;8.644;2022-10-24T00:56:48;15.23;;;8.27;;
37693;SDS011;23531;50.122;8.644;2022-10-24T00:59:03;15.32;;;8.13;;
37693;SDS011;23531;50.122;8.644;2022-10-24T01:01:09;18.50;;;9.13;;
37693;SDS011;23531;50.122;8.644;2022-10-24T01:03:10;12.90;;;8.57;;
37693;SDS011;23531;50.122;8.644;2022-10-24T01:05:14;16.02;;;8.95;;
37693;SDS011;23531;50.122;8.644;2022-10-24T01:07:20;16.73;;;8.18;;
37693;SDS011;23531;50.122;8.644;2022-10-24T01:09:32;15.82;;;8.82;;
37693;SDS011;23531;50.122;8.644;2022-10-24T01:11:47;17.58;;;8.85;;
37693;SDS011;23531;50.122;8.644;2022-10-24T01:13:59;14.57;;;8.15;;
37693;SDS011;23531;50.122;8.644;2022-10-24T01:16:08;12.90;;;9.13;;
37693;SDS011;23531;50.122;8.644;2022-10-24T01:18:15;13.90;;;7.97;;
37693;SDS011;23531;50.122;8.644;2022-10-24T01:20:25;16.73;;;8.20;;
37693;SDS011;23531;50.122;8.644;2022-10-24T01:22:40;14.18;;;8.35;;
37693;SDS011;23531;50.122;8.644;2022-10-24T01:24:56;12.10;;;7.75;;
37693;SDS011;23531;50.122;8.644;2022-10-24T01:27:12;14.48;;;8.13;;
37693;SDS011;23531;50.122;8.644;2022-10-24T01:32:01;10.95;;;7.30;;
37693;SDS011;23531;50.122;8.644;2022-10-24T01:34:09;11.63;;;6.82;;
37693;SDS011;23531;50.122;8.644;2022-10-24T01:36:22;12.68;;;8.00;;
37693;SDS011;23531;50.122;8.644;2022-10-24T01:38:33;13.10;;;7.93;;
37693;SDS011;23531;50.122;8.644;2022-10-24T01:40:38;12.63;;;8.00;;
37693;SDS011;23531;50.122;8.644;2022-10-24T01:42:45;11.68;;;7.53;;
37693;SDS011;23531;50.122;8.644;2022-10-24T01:44:48;10.88;;;7.78;;
37693;SDS011;23531;50.122;8.644;2022-10-24T01:46:54;13.38;;;7.72;;
37693;SDS011;23531;50.122;8.644;2022-10-24T01:48:59;10.38;;;7.57;;
37693;SDS011;23531;50.122;8.644;2022-10-24T01:51:05;9.98;;;6.55;;
37693;SDS011;23531;50.122;8.644;2022-10-24T01:53:09;10.50;;;7.55;;
37693;SDS011;23531;50.122;8.644;2022-10-24T01:55:13;11.27;;;6.78;;
37693;SDS011;23531;50.122;8.644;2022-10-24T01:57:15;10.50;;;6.72;;
37693;SDS011;23531;50.122;8.644;2022-10-24T02:01:41;12.88;;;6.65;;
37693;SDS011;23531;50.122;8.644;2022-10-24T02:03:45;15.60;;;7.45;;
37693;SDS011;23531;50.122;8.644;2022-10-24T02:05:51;10.70;;;7.28;;
37693;SDS011;23531;50.122;8.644;2022-10-24T02:07:58;12.32;;;7.13;;
37693;SDS011;23531;50.122;8.644;2022-10-24T02:10:07;14.50;;;7.75;;
37693;SDS011;23531;50.122;8.644;2022-10-24T02:12:12;10.60;;;7.40;;
37693;SDS011;23531;50.122;8.644;2022-10-24T02:14:16;13.43;;;7.85;;
37693;SDS011;23531;50.122;8.644;2022-10-24T02:16:23;10.63;;;6.80;;
37693;SDS011;23531;50.122;8.644;2022-10-24T02:18:25;8.73;;;6.55;;
37693;SDS011;23531;50.122;8.644;2022-10-24T02:20:32;10.00;;;6.00;;
37693;SDS011;23531;50.122;8.644;2022-10-24T02:22:38;13.10;;;6.53;;
37693;SDS011;23531;50.122;8.644;2022-10-24T02:24:47;8.77;;;5.97;;
37693;SDS011;23531;50.122;8.644;2022-10-24T02:26:53;11.48;;;7.00;;
37693;SDS011;23531;50.122;8.644;2022-10-24T02:28:59;10.73;;;6.90;;
37693;SDS011;23531;50.122;8.644;2022-10-24T02:31:05;11.25;;;6.38;;
37693;SDS011;23531;50.122;8.644;2022-10-24T02:33:10;11.30;;;6.35;;
37693;SDS011;23531;50.122;8.644;2022-10-24T02:35:15;9.40;;;6.50;;
37693;SDS011;23531;50.122;8.644;2022-10-24T02:37:21;9.75;;;6.32;;
37693;SDS011;23531;50.122;8.644;2022-10-24T02:39:25;10.65;;;6.53;;
37693;SDS011;23531;50.122;8.644;2022-10-24T02:41:29;7.18;;;5.78;;
37693;SDS011;23531;50.122;8.644;2022-10-24T02:43:33;8.75;;;6.18;;
37693;SDS011;23531;50.122;8.644;2022-10-24T02:45:35;10.38;;;6.20;;
37693;SDS011;23531;50.122;8.644;2022-10-24T02:47:37;10.75;;;5.75;;
37693;SDS011;23531;50.122;8.644;2022-10-24T02:49:42;7.60;;;5.47;;
37693;SDS011;23531;50.122;8.644;2022-10-24T02:51:43;8.45;;;5.75;;
37693;SDS011;23531;50.122;8.644;2022-10-24T02:53:49;7.05;;;5.60;;
37693;SDS011;23531;50.122;8.644;2022-10-24T02:55:51;9.70;;;5.90;;
37693;SDS011;23531;50.122;8.644;2022-10-24T02:57:52;10.70;;;5.68;;
37693;SDS011;23531;50.122;8.644;2022-10-24T02:59:54;8.98;;;5.50;;
37693;SDS011;23531;50.122;8.644;2022-10-24T03:01:55;8.05;;;5.75;;
37693;SDS011;23531;50.122;8.644;2022-10-24T03:03:57;8.55;;;5.63;;
37693;SDS011;23531;50.122;8.644;2022-10-24T03:05:59;8.77;;;6.07;;
37693;SDS011;23531;50.122;8.644;2022-10-24T03:08:00;8.38;;;5.85;;
37693;SDS011;23531;50.122;8.644;2022-10-24T03:10:03;8.60;;;6.07;;
37693;SDS011;23531;50.122;8.644;2022-10-24T03:12:05;9.65;;;5.82;;
37693;SDS011;23531;50.122;8.644;2022-10-24T03:14:06;7.47;;;5.47;;
37693;SDS011;23531;50.122;8.644;2022-10-24T03:16:08;9.73;;;6.15;;
37693;SDS011;23531;50.122;8.644;2022-10-24T03:18:09;13.50;;;10.35;;
37693;SDS011;23531;50.122;8.644;2022-10-24T03:20:11;7.90;;;5.88;;
37693;SDS011;23531;50.122;8.644;2022-10-24T03:22:12;8.02;;;5.63;;
37693;SDS011;23531;50.122;8.644;2022-10-24T03:24:14;9.98;;;6.00;;
37693;SDS011;23531;50.122;8.644;2022-10-24T03:26:16;6.97;;;5.68;;
37693;SDS011;23531;50.122;8.644;2022-10-24T03:28:18;13.00;;;5.93;;
37693;SDS011;23531;50.122;8.644;2022-10-24T03:30:19;11.10;;;6.13;;
37693;SDS011;23531;50.122;8.644;2022-10-24T03:32:21;11.02;;;6.45;;
37693;SDS011;23531;50.122;8.644;2022-10-24T03:34:22;8.68;;;6.53;;
37693;SDS011;23531;50.122;8.644;2022-10-24T03:36:24;12.40;;;5.82;;
37693;SDS011;23531;50.122;8.644;2022-10-24T03:38:25;6.90;;;5.50;;
37693;SDS011;23531;50.122;8.644;2022-10-24T03:40:27;9.35;;;5.10;;
37693;SDS011;23531;50.122;8.644;2022-10-24T03:42:30;6.68;;;5.57;;
37693;SDS011;23531;50.122;8.644;2022-10-24T03:44:31;7.38;;;5.88;;
37693;SDS011;23531;50.122;8.644;2022-10-24T03:46:33;8.80;;;6.20;;
37693;SDS011;23531;50.122;8.644;2022-10-24T03:48:34;9.82;;;5.97;;
37693;SDS011;23531;50.122;8.644;2022-10-24T03:50:36;10.98;;;6.07;;
37693;SDS011;23531;50.122;8.644;2022-10-24T03:52:37;9.68;;;6.07;;
37693;SDS011;23531;50.122;8.644;2022-10-24T03:54:39;9.50;;;6.18;;
37693;SDS011;23531;50.122;8.644;2022-10-24T03:56:40;12.55;;;7.32;;
37693;SDS011;23531;50.122;8.644;2022-10-24T03:58:43;8.50;;;6.05;;
37693;SDS011;23531;50.122;8.644;2022-10-24T04:00:44;11.00;;;6.13;;
37693;SDS011;23531;50.122;8.644;2022-10-24T04:02:46;9.65;;;6.32;;
37693;SDS011;23531;50.122;8.644;2022-10-24T04:04:49;7.78;;;5.63;;
37693;SDS011;23531;50.122;8.644;2022-10-24T04:06:51;9.23;;;6.43;;
37693;SDS011;23531;50.122;8.644;2022-10-24T04:08:52;8.68;;;5.43;;
37693;SDS011;23531;50.122;8.644;2022-10-24T04:10:55;10.05;;;5.82;;
37693;SDS011;23531;50.122;8.644;2022-10-24T04:12:56;8.70;;;6.43;;
37693;SDS011;23531;50.122;8.644;2022-10-24T04:14:59;10.38;;;5.57;;
37693;SDS011;23531;50.122;8.644;2022-10-24T04:17:00;10.90;;;5.72;;
37693;SDS011;23531;50.122;8.644;2022-10-24T04:19:02;8.10;;;6.00;;
37693;SDS011;23531;50.122;8.644;2022-10-24T04:21:03;7.93;;;5.90;;
37693;SDS011;23531;50.122;8.644;2022-10-24T04:23:05;8.68;;;6.40;;
37693;SDS011;23531;50.122;8.644;2022-10-24T04:25:07;8.75;;;5.90;;
37693;SDS011;23531;50.122;8.644;2022-10-24T04:27:08;10.15;;;6.50;;
37693;SDS011;23531;50.122;8.644;2022-10-24T04:29:10;7.55;;;6.15;;
37693;SDS011;23531;50.122;8.644;2022-10-24T04:31:13;12.07;;;6.40;;
37693;SDS011;23531;50.122;8.644;2022-10-24T04:33:14;12.52;;;6.55;;
37693;SDS011;23531;50.122;8.644;2022-10-24T04:35:16;13.07;;;7.10;;
37693;SDS011;23531;50.122;8.644;2022-10-24T04:37:18;11.85;;;6.47;;
37693;SDS011;23531;50.122;8.644;2022-10-24T04:39:19;9.65;;;6.65;;
37693;SDS011;23531;50.122;8.644;2022-10-24T04:41:21;10.95;;;6.60;;
37693;SDS011;23531;50.122;8.644;2022-10-24T04:43:23;10.57;;;6.43;;
37693;SDS011;23531;50.122;8.644;2022-10-24T04:45:25;9.70;;;6.93;;
37693;SDS011;23531;50.122;8.644;2022-10-24T04:47:27;13.27;;;7.68;;
37693;SDS011;23531;50.122;8.644;2022-10-24T04:49:29;10.00;;;6.68;;
37693;SDS011;23531;50.122;8.644;2022-10-24T04:51:30;9.93;;;6.35;;
37693;SDS011;23531;50.122;8.644;2022-10-24T04:53:32;12.15;;;6.55;;
37693;SDS011;23531;50.122;8.644;2022-10-24T04:55:33;10.70;;;7.00;;
37693;SDS011;23531;50.122;8.644;2022-10-24T04:57:35;11.77;;;6.25;;
37693;SDS011;23531;50.122;8.644;2022-10-24T04:59:37;10.63;;;5.78;;
37693;SDS011;23531;50.122;8.644;2022-10-24T05:01:38;11.65;;;5.65;;
37693;SDS011;23531;50.122;8.644;2022-10-24T05:03:41;12.57;;;5.22;;
37693;SDS011;23531;50.122;8.644;2022-10-24T05:05:42;11.95;;;6.95;;
37693;SDS011;23531;50.122;8.644;2022-10-24T05:07:44;14.38;;;6.63;;
37693;SDS011;23531;50.122;8.644;2022-10-24T05:09:46;9.55;;;5.55;;
37693;SDS011;23531;50.122;8.644;2022-10-24T05:11:48;11.75;;;5.55;;
37693;SDS011;23531;50.122;8.644;2022-10-24T05:13:49;16.17;;;9.75;;
37693;SDS011;23531;50.122;8.644;2022-10-24T05:15:51;12.45;;;6.03;;
37693;SDS011;23531;50.122;8.644;2022-10-24T05:17:53;14.25;;;6.05;;
37693;SDS011;23531;50.122;8.644;2022-10-24T05:19:55;15.05;;;6.05;;
37693;SDS011;23531;50.122;8.644;2022-10-24T05:21:57;16.75;;;9.23;;
37693;SDS011;23531;50.122;8.644;2022-10-24T05:23:58;17.20;;;10.90;;
37693;SDS011;23531;50.122;8.644;2022-10-24T05:26:00;14.02;;;7.25;;
37693;SDS011;23531;50.122;8.644;2022-10-24T05:28:01;12.43;;;7.40;;
37693;SDS011;23531;50.122;8.644;2022-10-24T05:30:04;15.88;;;7.38;;
37693;SDS011;23531;50.122;8.644;2022-10-24T05:32:06;14.65;;;9.10;;
37693;SDS011;23531;50.122;8.644;2022-10-24T05:34:08;14.48;;;7.75;;
37693;SDS011;23531;50.122;8.644;2022-10-24T05:36:12;11.63;;;6.50;;
37693;SDS011;23531;50.122;8.644;2022-10-24T05:38:13;14.40;;;7.30;;
37693;SDS011;23531;50.122;8.644;2022-10-24T05:40:15;47.38;;;18.65;;
37693;SDS011;23531;50.122;8.644;2022-10-24T05:42:16;32.47;;;13.75;;
37693;SDS011;23531;50.122;8.644;2022-10-24T05:44:18;19.13;;;8.70;;
37693;SDS011;23531;50.122;8.644;2022-10-24T05:46:19;20.23;;;9.80;;
37693;SDS011;23531;50.122;8.644;2022-10-24T05:48:21;15.80;;;7.97;;
37693;SDS011;23531;50.122;8.644;2022-10-24T05:50:22;15.55;;;8.15;;
37693;SDS011;23531;50.122;8.644;2022-10-24T05:52:27;18.63;;;11.13;;
37693;SDS011;23531;50.122;8.644;2022-10-24T05:54:28;17.65;;;7.55;;
37693;SDS011;23531;50.122;8.644;2022-10-24T05:56:30;20.15;;;8.57;;
37693;SDS011;23531;50.122;8.644;2022-10-24T05:58:32;14.23;;;7.32;;
37693;SDS011;23531;50.122;8.644;2022-10-24T06:00:34;15.98;;;7.15;;
37693;SDS011;23531;50.122;8.644;2022-10-24T06:02:35;13.80;;;7.38;;
37693;SDS011;23531;50.122;8.644;2022-10-24T06:04:37;18.02;;;7.75;;
37693;SDS011;23531;50.122;8.644;2022-10-24T06:06:38;13.25;;;7.18;;
37693;SDS011;23531;50.122;8.644;2022-10-24T06:08:41;19.27;;;8.32;;
37693;SDS011;23531;50.122;8.644;2022-10-24T06:10:44;14.05;;;8.27;;
37693;SDS011;23531;50.122;8.644;2022-10-24T06:12:47;15.65;;;8.65;;
37693;SDS011;23531;50.122;8.644;2022-10-24T06:14:49;19.02;;;9.38;;
37693;SDS011;23531;50.122;8.644;2022-10-24T06:16:50;13.05;;;7.68;;
37693;SDS011;23531;50.122;8.644;2022-10-24T06:18:51;16.63;;;7.93;;
37693;SDS011;23531;50.122;8.644;2022-10-24T06:20:53;16.52;;;7.82;;
37693;SDS011;23531;50.122;8.644;2022-10-24T06:22:54;17.48;;;8.27;;
37693;SDS011;23531;50.122;8.644;2022-10-24T06:24:57;15.55;;;8.02;;
37693;SDS011;23531;50.122;8.644;2022-10-24T06:26:59;13.35;;;8.05;;
37693;SDS011;23531;50.122;8.644;2022-10-24T06:29:01;13.52;;;8.00;;
37693;SDS011;23531;50.122;8.644;2022-10-24T06:31:03;15.07;;;8.95;;
37693;SDS011;23531;50.122;8.644;2022-10-24T06:33:04;17.27;;;9.15;;
37693;SDS011;23531;50.122;8.644;2022-10-24T06:35:06;14.85;;;7.50;;
37693;SDS011;23531;50.122;8.644;2022-10-24T06:37:10;13.68;;;7.80;;
37693;SDS011;23531;50.122;8.644;2022-10-24T06:39:12;14.70;;;7.70;;
37693;SDS011;23531;50.122;8.644;2022-10-24T06:41:15;15.48;;;8.48;;
37693;SDS011;23531;50.122;8.644;2022-10-24T06:43:17;16.92;;;8.50;;
37693;SDS011;23531;50.122;8.644;2022-10-24T06:45:18;15.63;;;8.05;;
37693;SDS011;23531;50.122;8.644;2022-10-24T06:47:20;14.52;;;7.90;;
37693;SDS011;23531;50.122;8.644;2022-10-24T06:49:22;13.85;;;8.30;;
37693;SDS011;23531;50.122;8.644;2022-10-24T06:51:23;16.10;;;8.82;;
37693;SDS011;23531;50.122;8.644;2022-10-24T06:53:25;14.57;;;7.95;;
37693;SDS011;23531;50.122;8.644;2022-10-24T06:55:27;19.50;;;8.57;;
37693;SDS011;23531;50.122;8.644;2022-10-24T06:57:30;15.50;;;7.95;;
37693;SDS011;23531;50.122;8.644;2022-10-24T06:59:31;21.67;;;9.98;;
37693;SDS011;23531;50.122;8.644;2022-10-24T07:01:33;16.67;;;8.52;;
37693;SDS011;23531;50.122;8.644;2022-10-24T07:03:35;18.38;;;9.15;;
37693;SDS011;23531;50.122;8.644;2022-10-24T07:05:37;21.08;;;9.43;;
37693;SDS011;23531;50.122;8.644;2022-10-24T07:07:39;20.92;;;9.30;;
37693;SDS011;23531;50.122;8.644;2022-10-24T07:09:41;14.95;;;8.70;;
37693;SDS011;23531;50.122;8.644;2022-10-24T07:11:43;17.83;;;7.57;;
37693;SDS011;23531;50.122;8.644;2022-10-24T07:13:46;21.77;;;7.28;;
37693;SDS011;23531;50.122;8.644;2022-10-24T07:15:48;12.73;;;6.47;;
37693;SDS011;23531;50.122;8.644;2022-10-24T07:17:53;19.95;;;8.00;;
37693;SDS011;23531;50.122;8.644;2022-10-24T07:19:54;18.13;;;7.20;;
37693;SDS011;23531;50.122;8.644;2022-10-24T07:21:56;15.52;;;6.22;;
37693;SDS011;23531;50.122;8.644;2022-10-24T07:23:58;17.65;;;7.25;;
37693;SDS011;23531;50.122;8.644;2022-10-24T07:26:00;19.65;;;6.25;;
37693;SDS011;23531;50.122;8.644;2022-10-24T07:28:03;14.40;;;5.80;;
37693;SDS011;23531;50.122;8.644;2022-10-24T07:30:07;17.67;;;6.07;;
37693;SDS011;23531;50.122;8.644;2022-10-24T07:32:09;14.45;;;6.38;;
37693;SDS011;23531;50.122;8.644;2022-10-24T07:34:13;29.23;;;7.15;;
37693;SDS011;23531;50.122;8.644;2022-10-24T07:36:15;18.25;;;7.32;;
37693;SDS011;23531;50.122;8.644;2022-10-24T07:38:18;16.67;;;6.80;;
37693;SDS011;23531;50.122;8.644;2022-10-24T07:40:20;16.70;;;7.07;;
37693;SDS011;23531;50.122;8.644;2022-10-24T07:42:22;18.33;;;7.63;;
37693;SDS011;23531;50.122;8.644;2022-10-24T07:44:23;37.72;;;21.35;;
37693;SDS011;23531;50.122;8.644;2022-10-24T07:46:26;27.50;;;13.02;;
37693;SDS011;23531;50.122;8.644;2022-10-24T07:48:28;17.00;;;7.78;;
37693;SDS011;23531;50.122;8.644;2022-10-24T07:50:29;17.77;;;6.10;;
37693;SDS011;23531;50.122;8.644;2022-10-24T07:52:31;13.30;;;6.45;;
37693;SDS011;23531;50.122;8.644;2022-10-24T07:54:32;14.15;;;5.30;;
37693;SDS011;23531;50.122;8.644;2022-10-24T07:56:34;109.20;;;17.80;;
37693;SDS011;23531;50.122;8.644;2022-10-24T07:58:35;57.45;;;11.07;;
37693;SDS011;23531;50.122;8.644;2022-10-24T08:00:37;50.83;;;11.13;;
37693;SDS011;23531;50.122;8.644;2022-10-24T08:02:40;26.25;;;6.55;;
37693;SDS011;23531;50.122;8.644;2022-10-24T08:04:42;22.30;;;6.03;;
37693;SDS011;23531;50.122;8.644;2022-10-24T08:06:43;16.83;;;5.35;;
37693;SDS011;23531;50.122;8.644;2022-10-24T08:08:45;16.92;;;5.43;;
37693;SDS011;23531;50.122;8.644;2022-10-24T08:10:46;13.77;;;5.13;;
37693;SDS011;23531;50.122;8.644;2022-10-24T08:12:48;24.25;;;5.75;;
37693;SDS011;23531;50.122;8.644;2022-10-24T08:14:49;16.30;;;5.78;;
37693;SDS011;23531;50.122;8.644;2022-10-24T08:16:51;18.27;;;5.10;;
37693;SDS011;23531;50.122;8.644;2022-10-24T08:18:54;23.48;;;7.15;;
37693;SDS011;23531;50.122;8.644;2022-10-24T08:20:57;22.13;;;6.00;;
37693;SDS011;23531;50.122;8.644;2022-10-24T08:22:59;14.13;;;5.57;;
37693;SDS011;23531;50.122;8.644;2022-10-24T08:25:01;12.35;;;5.95;;
37693;SDS011;23531;50.122;8.644;2022-10-24T08:27:05;13.32;;;6.28;;
37693;SDS011;23531;50.122;8.644;2022-10-24T08:29:06;20.25;;;7.35;;
37693;SDS011;23531;50.122;8.644;2022-10-24T08:31:11;14.75;;;6.85;;
37693;SDS011;23531;50.122;8.644;2022-10-24T08:33:13;21.80;;;7.25;;
37693;SDS011;23531;50.122;8.644;2022-10-24T08:35:17;17.52;;;8.15;;
37693;SDS011;23531;50.122;8.644;2022-10-24T08:37:21;11.32;;;5.80;;
37693;SDS011;23531;50.122;8.644;2022-10-24T08:39:22;16.60;;;7.43;;
37693;SDS011;23531;50.122;8.644;2022-10-24T08:41:25;17.55;;;7.18;;
37693;SDS011;23531;50.122;8.644;2022-10-24T08:43:31;18.13;;;6.80;;
37693;SDS011;23531;50.122;8.644;2022-10-24T08:45:33;19.77;;;6.80;;
37693;SDS011;23531;50.122;8.644;2022-10-24T08:47:39;16.20;;;6.80;;
37693;SDS011;23531;50.122;8.644;2022-10-24T08:49:45;13.82;;;7.20;;
37693;SDS011;23531;50.122;8.644;2022-10-24T08:51:53;17.92;;;7.47;;
37693;SDS011;23531;50.122;8.644;2022-10-24T08:53:58;19.08;;;6.88;;
37693;SDS011;23531;50.122;8.644;2022-10-24T08:56:02;17.50;;;6.90;;
37693;SDS011;23531;50.122;8.644;2022-10-24T08:58:05;15.88;;;6.63;;
37693;SDS011;23531;50.122;8.644;2022-10-24T09:00:11;16.10;;;6.03;;
37693;SDS011;23531;50.122;8.644;2022-10-24T09:02:19;15.20;;;6.78;;
37693;SDS011;23531;50.122;8.644;2022-10-24T09:04:25;15.15;;;5.82;;
37693;SDS011;23531;50.122;8.644;2022-10-24T09:06:32;20.63;;;6.43;;
37693;SDS011;23531;50.122;8.644;2022-10-24T09:08:37;17.65;;;6.40;;
37693;SDS011;23531;50.122;8.644;2022-10-24T09:10:45;11.90;;;5.50;;
37693;SDS011;23531;50.122;8.644;2022-10-24T09:12:53;33.97;;;14.57;;
37693;SDS011;23531;50.122;8.644;2022-10-24T09:14:56;22.40;;;7.72;;
37693;SDS011;23531;50.122;8.644;2022-10-24T09:17:01;18.25;;;5.85;;
37693;SDS011;23531;50.122;8.644;2022-10-24T09:19:11;21.48;;;6.25;;
37693;SDS011;23531;50.122;8.644;2022-10-24T09:21:15;17.23;;;5.00;;
37693;SDS011;23531;50.122;8.644;2022-10-24T09:23:17;21.15;;;6.00;;
37693;SDS011;23531;50.122;8.644;2022-10-24T09:25:23;16.00;;;5.70;;
37693;SDS011;23531;50.122;8.644;2022-10-24T09:27:29;24.35;;;6.40;;
37693;SDS011;23531;50.122;8.644;2022-10-24T09:29:33;18.98;;;5.72;;
37693;SDS011;23531;50.122;8.644;2022-10-24T09:31:35;31.17;;;14.77;;
37693;SDS011;23531;50.122;8.644;2022-10-24T09:33:37;16.88;;;5.38;;
37693;SDS011;23531;50.122;8.644;2022-10-24T09:35:41;18.95;;;6.50;;
37693;SDS011;23531;50.122;8.644;2022-10-24T09:37:44;20.13;;;7.22;;
37693;SDS011;23531;50.122;8.644;2022-10-24T09:39:47;17.10;;;4.82;;
37693;SDS011;23531;50.122;8.644;2022-10-24T09:42:10;16.02;;;5.68;;
37693;SDS011;23531;50.122;8.644;2022-10-24T09:46:44;16.02;;;4.63;;
37693;SDS011;23531;50.122;8.644;2022-10-24T09:48:51;15.95;;;5.57;;
37693;SDS011;23531;50.122;8.644;2022-10-24T09:50:54;14.82;;;4.15;;
37693;SDS011;23531;50.122;8.644;2022-10-24T09:52:57;18.13;;;5.28;;
37693;SDS011;23531;50.122;8.644;2022-10-24T09:55:04;16.60;;;5.10;;
37693;SDS011;23531;50.122;8.644;2022-10-24T09:57:16;21.83;;;4.82;;
37693;SDS011;23531;50.122;8.644;2022-10-24T09:59:26;13.73;;;3.80;;
37693;SDS011;23531;50.122;8.644;2022-10-24T10:01:27;11.00;;;4.07;;
37693;SDS011;23531;50.122;8.644;2022-10-24T10:03:29;14.70;;;5.32;;
37693;SDS011;23531;50.122;8.644;2022-10-24T10:05:41;14.18;;;3.75;;
37693;SDS011;23531;50.122;8.644;2022-10-24T10:07:43;12.98;;;3.92;;
37693;SDS011;23531;50.122;8.644;2022-10-24T10:09:48;11.65;;;4.25;;
37693;SDS011;23531;50.122;8.644;2022-10-24T10:11:53;12.30;;;4.07;;
37693;SDS011;23531;50.122;8.644;2022-10-24T10:13:57;9.40;;;4.32;;
37693;SDS011;23531;50.122;8.644;2022-10-24T10:16:00;14.95;;;4.40;;
37693;SDS011;23531;50.122;8.644;2022-10-24T10:18:04;13.27;;;4.28;;
37693;SDS011;23531;50.122;8.644;2022-10-24T10:20:08;12.32;;;4.30;;
37693;SDS011;23531;50.122;8.644;2022-10-24T10:22:23;10.63;;;4.10;;
37693;SDS011;23531;50.122;8.644;2022-10-24T10:24:26;13.13;;;4.10;;
37693;SDS011;23531;50.122;8.644;2022-10-24T10:26:28;9.48;;;4.03;;
37693;SDS011;23531;50.122;8.644;2022-10-24T10:28:31;10.55;;;3.72;;
37693;SDS011;23531;50.122;8.644;2022-10-24T10:30:36;12.13;;;3.88;;
37693;SDS011;23531;50.122;8.644;2022-10-24T10:32:39;15.18;;;3.92;;
37693;SDS011;23531;50.122;8.644;2022-10-24T10:34:48;10.52;;;3.92;;
37693;SDS011;23531;50.122;8.644;2022-10-24T10:37:02;8.80;;;3.83;;
37693;SDS011;23531;50.122;8.644;2022-10-24T10:39:21;11.80;;;3.30;;
37693;SDS011;23531;50.122;8.644;2022-10-24T10:41:39;10.25;;;3.95;;
37693;SDS011;23531;50.122;8.644;2022-10-24T10:43:50;13.13;;;4.38;;
37693;SDS011;23531;50.122;8.644;2022-10-24T10:46:04;11.05;;;3.25;;
37693;SDS011;23531;50.122;8.644;2022-10-24T10:48:24;7.07;;;3.10;;
37693;SDS011;23531;50.122;8.644;2022-10-24T10:50:36;8.52;;;3.35;;
37693;SDS011;23531;50.122;8.644;2022-10-24T10:52:42;8.63;;;3.28;;
37693;SDS011;23531;50.122;8.644;2022-10-24T10:54:52;14.57;;;4.13;;
37693;SDS011;23531;50.122;8.644;2022-10-24T10:57:07;12.77;;;3.30;;
37693;SDS011;23531;50.122;8.644;2022-10-24T10:59:19;9.75;;;3.45;;
37693;SDS011;23531;50.122;8.644;2022-10-24T11:01:38;9.55;;;3.50;;
37693;SDS011;23531;50.122;8.644;2022-10-24T11:03:49;11.13;;;3.20;;
37693;SDS011;23531;50.122;8.644;2022-10-24T11:06:03;10.15;;;3.50;;
37693;SDS011;23531;50.122;8.644;2022-10-24T11:08:10;15.03;;;4.33;;
37693;SDS011;23531;50.122;8.644;2022-10-24T11:10:31;6.55;;;3.10;;
37693;SDS011;23531;50.122;8.644;2022-10-24T11:12:38;10.13;;;3.90;;
37693;SDS011;23531;50.122;8.644;2022-10-24T11:14:42;9.25;;;3.92;;
37693;SDS011;23531;50.122;8.644;2022-10-24T11:16:50;9.73;;;4.05;;
37693;SDS011;23531;50.122;8.644;2022-10-24T11:18:54;8.50;;;3.30;;
37693;SDS011;23531;50.122;8.644;2022-10-24T11:20:57;10.35;;;3.33;;
37693;SDS011;23531;50.122;8.644;2022-10-24T11:23:02;7.75;;;2.97;;
37693;SDS011;23531;50.122;8.644;2022-10-24T11:25:06;6.88;;;3.35;;
37693;SDS011;23531;50.122;8.644;2022-10-24T11:27:09;8.57;;;2.50;;
37693;SDS011;23531;50.122;8.644;2022-10-24T11:29:18;10.55;;;3.78;;
37693;SDS011;23531;50.122;8.644;2022-10-24T11:31:27;6.35;;;2.30;;
37693;SDS011;23531;50.122;8.644;2022-10-24T11:33:35;7.03;;;3.42;;
37693;SDS011;23531;50.122;8.644;2022-10-24T11:35:52;8.82;;;2.95;;
37693;SDS011;23531;50.122;8.644;2022-10-24T11:38:01;7.60;;;2.90;;
37693;SDS011;23531;50.122;8.644;2022-10-24T11:40:09;8.73;;;2.95;;
37693;SDS011;23531;50.122;8.644;2022-10-24T11:42:14;6.30;;;3.55;;
37693;SDS011;23531;50.122;8.644;2022-10-24T11:44:24;10.07;;;3.13;;
37693;SDS011;23531;50.122;8.644;2022-10-24T11:46:31;10.20;;;3.45;;
37693;SDS011;23531;50.122;8.644;2022-10-24T11:48:39;9.65;;;3.20;;
37693;SDS011;23531;50.122;8.644;2022-10-24T11:50:46;9.20;;;3.25;;
37693;SDS011;23531;50.122;8.644;2022-10-24T11:52:53;10.75;;;3.38;;
37693;SDS011;23531;50.122;8.644;2022-10-24T11:55:00;9.10;;;2.80;;
37693;SDS011;23531;50.122;8.644;2022-10-24T11:59:14;8.60;;;3.00;;
37693;SDS011;23531;50.122;8.644;2022-10-24T12:01:22;7.75;;;2.70;;
37693;SDS011;23531;50.122;8.644;2022-10-24T12:03:58;8.60;;;2.60;;
37693;SDS011;23531;50.122;8.644;2022-10-24T12:06:18;5.18;;;2.90;;
37693;SDS011;23531;50.122;8.644;2022-10-24T12:08:39;7.07;;;3.13;;
37693;SDS011;23531;50.122;8.644;2022-10-24T12:11:00;13.23;;;3.00;;
37693;SDS011;23531;50.122;8.644;2022-10-24T12:13:17;7.20;;;2.80;;
37693;SDS011;23531;50.122;8.644;2022-10-24T12:15:32;9.35;;;2.58;;
37693;SDS011;23531;50.122;8.644;2022-10-24T12:17:48;8.50;;;2.53;;
37693;SDS011;23531;50.122;8.644;2022-10-24T12:20:03;6.97;;;2.28;;
37693;SDS011;23531;50.122;8.644;2022-10-24T12:22:10;11.35;;;2.47;;
37693;SDS011;23531;50.122;8.644;2022-10-24T12:24:22;7.82;;;2.97;;
37693;SDS011;23531;50.122;8.644;2022-10-24T12:26:29;6.15;;;2.60;;
37693;SDS011;23531;50.122;8.644;2022-10-24T12:28:32;11.68;;;2.03;;
37693;SDS011;23531;50.122;8.644;2022-10-24T12:30:35;10.40;;;2.40;;
37693;SDS011;23531;50.122;8.644;2022-10-24T12:32:37;4.38;;;1.90;;
37693;SDS011;23531;50.122;8.644;2022-10-24T12:34:42;6.32;;;2.00;;